Terminal Aerodrome Forecast
Issued by NWS

Home | Current Version | Previous Version | Text Only | Print | Product List | Glossary On
Versions: 1 2 3 4 5 6 7 8 9 10 11 12
000
FTUS46 KPDT 281100 RRA
TAFALW
TAF
KALW 281141Z 2812/0112 01008KT P6SM FEW100
     FM281600 24011KT P6SM SCT070
     FM010300 13006KT P6SM SKC
     FM011000 18005KT P6SM SCT200=

USA.gov is the U.S. government's official web portal to all federal, state and local government web resources and services.